createdAt,value
2019-02-11T00:02:01.583Z,100833.34
2019-02-11T00:04:38.855Z,100798.88
2019-02-11T00:07:12.055Z,100799.69
2019-02-11T00:09:45.086Z,100814.16
2019-02-11T00:12:19.235Z,100840.70
2019-02-11T00:14:52.153Z,100856.08
2019-02-11T00:17:25.029Z,100871.06
2019-02-11T00:20:02.512Z,100890.85
2019-02-11T00:22:35.423Z,100930.09
2019-02-11T00:25:09.579Z,100988.66
2019-02-11T00:27:41.572Z,101046.39
2019-02-11T00:30:15.495Z,101116.73
2019-02-11T00:32:48.350Z,101152.19
2019-02-11T00:35:21.616Z,101171.93
2019-02-11T00:37:55.763Z,101180.23
2019-02-11T00:40:28.232Z,101146.95
2019-02-11T00:43:00.672Z,100968.92
2019-02-11T00:45:33.368Z,100789.66
2019-02-11T00:48:07.220Z,100491.21
2019-02-11T00:50:39.241Z,100424.52
2019-02-11T00:53:12.594Z,100170.47
2019-02-11T00:55:46.808Z,99994.88
2019-02-11T00:58:18.278Z,99966.93
2019-02-11T01:00:50.817Z,99945.81
2019-02-11T01:03:23.821Z,99985.02
2019-02-11T01:05:56.952Z,99925.56
2019-02-11T01:08:30.101Z,99827.97
2019-02-11T01:11:06.045Z,99823.17
2019-02-11T01:13:38.569Z,99820.03
2019-02-11T01:16:11.718Z,99821.56
2019-02-11T01:18:45.924Z,99801.17
2019-02-11T01:21:18.818Z,99790.11
2019-02-11T01:23:51.443Z,99776.42
2019-02-11T01:26:28.346Z,99769.71
2019-02-11T01:29:02.277Z,99776.22
2019-02-11T01:31:35.877Z,99781.94
2019-02-11T01:34:08.557Z,99785.20
2019-02-11T01:36:41.178Z,99793.20
2019-02-11T01:39:15.257Z,99796.88
2019-02-11T01:41:48.771Z,99801.54
2019-02-11T01:44:22.051Z,99815.60
2019-02-11T01:46:53.699Z,99826.02
2019-02-11T01:49:29.015Z,99820.13
2019-02-11T01:52:01.979Z,99823.13
2019-02-11T01:54:34.161Z,99834.67
2019-02-11T01:57:06.836Z,99830.17
2019-02-11T01:59:39.152Z,99846.48
2019-02-11T02:02:11.994Z,99845.70
2019-02-11T02:04:44.614Z,99860.34
2019-02-11T02:07:17.369Z,99868.14
2019-02-11T02:09:49.853Z,99867.11
2019-02-11T02:12:21.955Z,99886.81
2019-02-11T02:14:53.897Z,99882.89
2019-02-11T02:17:25.998Z,99889.88
2019-02-11T02:19:58.579Z,99893.01
2019-02-11T02:22:30.066Z,99898.45
2019-02-11T02:25:02.210Z,99904.77
2019-02-11T02:27:34.781Z,99912.49
2019-02-11T02:30:07.322Z,99921.86
2019-02-11T02:32:40.093Z,99932.90
2019-02-11T02:35:13.183Z,99936.48
2019-02-11T02:37:45.835Z,99935.05
2019-02-11T02:40:18.339Z,99927.72
2019-02-11T02:42:51.430Z,99564.55
2019-02-11T02:45:22.700Z,99552.70
2019-02-11T02:47:55.492Z,99564.67
2019-02-11T02:50:28.597Z,99591.42
2019-02-11T02:53:01.187Z,99600.45
2019-02-11T02:55:33.773Z,99609.64
2019-02-11T02:58:05.793Z,99622.13
2019-02-11T03:00:37.230Z,99649.80
2019-02-11T03:03:09.817Z,99651.05
2019-02-11T03:05:41.151Z,99656.30
2019-02-11T03:08:13.168Z,99667.34
2019-02-11T03:10:44.751Z,99675.71
2019-02-11T03:13:16.266Z,99680.55
2019-02-11T03:15:49.555Z,99688.48
2019-02-11T03:18:21.650Z,99699.72
2019-02-11T03:20:53.948Z,99712.21
2019-02-11T03:23:26.241Z,99713.47
2019-02-11T03:25:58.524Z,99718.27
2019-02-11T03:28:31.530Z,99723.73
2019-02-11T03:31:05.317Z,99737.47
2019-02-11T03:33:38.363Z,99750.58
2019-02-11T03:36:10.361Z,99742.27
2019-02-11T03:38:43.476Z,99755.27
2019-02-11T03:41:15.605Z,99753.68
2019-02-11T03:43:48.342Z,99765.20
2019-02-11T03:46:19.578Z,99772.44
2019-02-11T03:48:51.562Z,99776.77
2019-02-11T03:51:22.995Z,99773.30
2019-02-11T03:53:54.530Z,99783.41
2019-02-11T03:56:28.045Z,99786.59
2019-02-11T03:58:59.184Z,99785.73
2019-02-11T04:01:30.517Z,99794.97
2019-02-11T04:04:01.683Z,99795.27
2019-02-11T04:06:40.157Z,99803.28
2019-02-11T04:09:12.513Z,99795.64
2019-02-11T04:11:45.613Z,99809.00
2019-02-11T04:14:24.775Z,99827.95
2019-02-11T04:16:52.853Z,99824.37
2019-02-11T04:19:25.079Z,99835.92
2019-02-11T04:22:15.435Z,99835.41
2019-02-11T04:24:47.751Z,99843.57
2019-02-11T04:27:20.259Z,99852.02
2019-02-11T04:29:52.575Z,99845.38
2019-02-11T04:32:27.119Z,99846.63
2019-02-11T04:34:59.456Z,99852.28
2019-02-11T04:37:31.698Z,99857.61
2019-02-11T04:40:04.513Z,99851.62
2019-02-11T04:42:37.041Z,99851.10
2019-02-11T04:45:10.684Z,99872.82
2019-02-11T04:47:42.603Z,99869.05
2019-02-11T04:50:14.953Z,99878.87
2019-02-11T04:52:48.044Z,99879.55
2019-02-11T04:55:21.551Z,99889.57
2019-02-11T04:57:53.625Z,99888.79
2019-02-11T05:00:25.741Z,99889.71
2019-02-11T05:02:58.635Z,99901.34
2019-02-11T05:05:31.189Z,99904.06
2019-02-11T05:08:03.818Z,99924.14
2019-02-11T05:10:36.575Z,99914.22
2019-02-11T05:13:09.353Z,99927.92
2019-02-11T05:15:41.735Z,99936.89
2019-02-11T05:18:14.097Z,99930.78
2019-02-11T05:20:47.052Z,99938.08
2019-02-11T05:23:19.463Z,99946.83
2019-02-11T05:25:52.510Z,99944.95
2019-02-11T05:28:25.535Z,99954.44
2019-02-11T05:30:58.138Z,99957.03
2019-02-11T05:33:30.640Z,99965.82
2019-02-11T05:36:02.731Z,99957.97
2019-02-11T05:38:36.013Z,99958.56
2019-02-11T05:41:08.432Z,99963.36
2019-02-11T05:43:40.766Z,99973.66
2019-02-11T05:46:13.353Z,99975.12
2019-02-11T05:48:45.223Z,99976.05
2019-02-11T05:51:17.618Z,99987.94
2019-02-11T05:53:49.920Z,99981.13
2019-02-11T05:56:21.769Z,99986.47
2019-02-11T05:58:54.060Z,99998.23
2019-02-11T06:01:26.071Z,99992.13
2019-02-11T06:04:03.116Z,100011.97
2019-02-11T06:06:38.609Z,100012.28
2019-02-11T06:09:11.307Z,100023.05
2019-02-11T06:11:44.399Z,100017.94
2019-02-11T06:14:16.781Z,100045.17
2019-02-11T06:16:52.748Z,100030.34
2019-02-11T06:19:28.196Z,100033.11
2019-02-11T06:22:00.954Z,100042.03
2019-02-11T06:24:34.101Z,100046.54
2019-02-11T06:27:06.517Z,100050.83
2019-02-11T06:29:39.459Z,100067.81
2019-02-11T06:32:12.040Z,100058.73
2019-02-11T06:34:46.870Z,100071.11
2019-02-11T06:37:18.899Z,100080.97
2019-02-11T06:39:51.247Z,100077.84
2019-02-11T06:42:23.456Z,100093.73
2019-02-11T06:44:57.976Z,100096.80
2019-02-11T06:47:30.457Z,100101.56
2019-02-11T06:50:10.372Z,100099.16
2019-02-11T06:52:42.692Z,100105.83
2019-02-11T06:55:16.122Z,100112.33
2019-02-11T06:57:48.616Z,100115.39
2019-02-11T07:00:21.243Z,100118.09
2019-02-11T07:02:57.798Z,100123.41
2019-02-11T07:05:31.703Z,100121.80
2019-02-11T07:08:05.706Z,100140.72
2019-02-11T07:10:38.651Z,100140.88
2019-02-11T07:13:11.305Z,100146.52
2019-02-11T07:15:44.550Z,100148.51
2019-02-11T07:18:19.840Z,100150.02
2019-02-11T07:20:52.778Z,100150.53
2019-02-11T07:23:25.358Z,100163.31
2019-02-11T07:25:58.040Z,100169.67
2019-02-11T07:28:30.402Z,100179.48
2019-02-11T07:31:02.912Z,100192.48
2019-02-11T07:33:37.351Z,100196.19
2019-02-11T07:36:10.908Z,100209.13
2019-02-11T07:40:44.109Z,100211.78
2019-02-11T07:43:32.273Z,100212.25
2019-02-11T07:46:14.128Z,100231.98
2019-02-11T07:48:49.749Z,100251.05
2019-02-11T07:51:25.326Z,100260.77
2019-02-11T07:54:02.343Z,100269.51
2019-02-11T07:56:38.848Z,100280.31
2019-02-11T07:59:19.055Z,100286.62
2019-02-11T08:01:59.334Z,100292.64
2019-02-11T08:04:32.269Z,100294.23
2019-02-11T08:07:12.393Z,100302.80
2019-02-11T08:09:47.525Z,100318.71
2019-02-11T08:12:25.936Z,100317.77
2019-02-11T08:15:01.877Z,100324.48
2019-02-11T08:18:02.408Z,100333.23
2019-02-11T08:20:51.681Z,100339.55
2019-02-11T08:23:39.397Z,100347.94
2019-02-11T08:26:14.525Z,100368.74
2019-02-11T08:29:47.416Z,100372.73
2019-02-11T08:32:11.201Z,100372.48
2019-02-11T08:34:47.094Z,100389.81
2019-02-11T08:37:45.985Z,100391.58
2019-02-11T08:40:19.242Z,100396.84
2019-02-11T08:43:02.848Z,100406.39
2019-02-11T08:45:37.773Z,100409.96
2019-02-11T08:50:20.239Z,100430.67
2019-02-11T08:52:56.995Z,100442.11
2019-02-11T08:55:35.840Z,100450.80
2019-02-11T08:58:09.483Z,100453.59
2019-02-11T09:00:46.767Z,100457.63
2019-02-11T09:03:20.639Z,100463.18
2019-02-11T09:05:56.303Z,100475.39
2019-02-11T09:08:31.334Z,100485.33
2019-02-11T09:11:04.401Z,100485.55
2019-02-11T09:13:38.175Z,100495.41
2019-02-11T09:16:12.088Z,100499.15
2019-02-11T09:18:47.468Z,100512.64
2019-02-11T09:22:08.813Z,100506.82
2019-02-11T09:24:44.303Z,100524.48
2019-02-11T09:27:17.262Z,100530.47
2019-02-11T09:29:49.807Z,100531.44
2019-02-11T09:32:22.492Z,100532.03
2019-02-11T09:34:55.308Z,100540.73
2019-02-11T09:37:27.590Z,100553.44
2019-02-11T09:40:03.072Z,100553.16
2019-02-11T09:42:35.865Z,100564.99
2019-02-11T09:45:13.577Z,100571.53
2019-02-11T09:47:45.761Z,100584.95
2019-02-11T09:50:28.442Z,100589.36
2019-02-11T09:53:02.041Z,100598.09
2019-02-11T09:55:57.671Z,100606.80
2019-02-11T09:58:31.421Z,100610.67
2019-02-11T10:01:05.831Z,100602.86
2019-02-11T10:03:52.451Z,100613.14
2019-02-11T10:06:25.576Z,100616.58
2019-02-11T10:09:04.765Z,100627.73
2019-02-11T10:11:41.144Z,100618.52
2019-02-11T10:14:17.029Z,100636.63
2019-02-11T10:16:51.181Z,100643.63
2019-02-11T10:19:23.712Z,100648.23
2019-02-11T10:22:07.032Z,100648.97
2019-02-11T10:24:48.835Z,100652.91
2019-02-11T10:27:23.651Z,100669.30
2019-02-11T10:29:56.088Z,100669.05
2019-02-11T10:32:30.251Z,100675.75
2019-02-11T10:35:02.507Z,100690.82
2019-02-11T10:37:35.494Z,100694.47
2019-02-11T10:40:08.965Z,100703.77
2019-02-11T10:42:42.172Z,100705.19
2019-02-11T10:45:15.912Z,100706.33
2019-02-11T10:47:50.255Z,100713.77
2019-02-11T10:50:23.927Z,100721.73
2019-02-11T10:52:57.590Z,100719.16
2019-02-11T10:55:37.007Z,100720.39
2019-02-11T10:58:09.664Z,100732.48
2019-02-11T11:00:42.671Z,100737.09
2019-02-11T11:03:15.748Z,100738.01
2019-02-11T11:05:49.311Z,100739.76
2019-02-11T11:08:24.347Z,100745.69
2019-02-11T11:10:58.970Z,100749.31
2019-02-11T11:13:31.837Z,100755.99
2019-02-11T11:16:04.836Z,100769.59
2019-02-11T11:18:37.616Z,100757.91
2019-02-11T11:21:13.605Z,100766.45
2019-02-11T11:23:48.497Z,100781.23
2019-02-11T11:26:20.878Z,100788.86
2019-02-11T11:28:56.868Z,100797.82
2019-02-11T11:31:32.207Z,100795.41
2019-02-11T11:34:04.809Z,100801.34
2019-02-11T11:36:40.047Z,100806.93
2019-02-11T11:39:33.107Z,100828.17
2019-02-11T11:42:06.484Z,100822.78
2019-02-11T11:44:40.341Z,100835.58
2019-02-11T11:47:13.911Z,100838.55
2019-02-11T11:49:47.466Z,100840.16
2019-02-11T11:52:21.759Z,100856.41
2019-02-11T11:54:55.412Z,100868.95
2019-02-11T11:57:29.121Z,100871.51
2019-02-11T12:00:02.166Z,100867.07
2019-02-11T12:02:36.605Z,100859.88
2019-02-11T12:05:09.345Z,100866.77
2019-02-11T12:07:45.264Z,100869.12
2019-02-11T12:10:19.303Z,100862.80
2019-02-11T12:12:53.083Z,100883.73
2019-02-11T12:15:31.326Z,100877.13
2019-02-11T12:18:03.915Z,100895.56
2019-02-11T12:20:36.263Z,100900.09
2019-02-11T12:23:09.040Z,100903.12
2019-02-11T12:25:41.671Z,100893.27
2019-02-11T12:28:16.621Z,100912.29
2019-02-11T12:30:53.300Z,100916.59
2019-02-11T12:33:24.930Z,100927.02
2019-02-11T12:35:59.798Z,100923.80
2019-02-11T12:38:36.019Z,100930.95
2019-02-11T12:41:14.014Z,100930.80
2019-02-11T12:43:56.084Z,100942.55
2019-02-11T12:46:30.694Z,100951.33
2019-02-11T12:49:03.065Z,100962.78
2019-02-11T12:51:36.149Z,100962.13
2019-02-11T12:54:09.561Z,100975.33
2019-02-11T12:56:42.577Z,100982.61
2019-02-11T12:59:18.084Z,100983.70
2019-02-11T13:01:52.886Z,100972.45
2019-02-11T13:04:25.633Z,100988.47
2019-02-11T13:06:59.613Z,100995.91
2019-02-11T13:09:40.810Z,101004.67
2019-02-11T13:12:16.934Z,101003.54
2019-02-11T13:14:56.126Z,101015.91
2019-02-11T13:17:33.705Z,101024.94
2019-02-11T13:20:08.913Z,101028.88
2019-02-11T13:22:37.995Z,101043.84
2019-02-11T13:25:15.486Z,101050.80
2019-02-11T13:27:47.923Z,101056.68
2019-02-11T13:30:23.026Z,101059.78
2019-02-11T13:33:03.660Z,101071.78
2019-02-11T13:35:37.199Z,101079.98
2019-02-11T13:38:11.626Z,101088.27
2019-02-11T13:40:48.620Z,101109.39
2019-02-11T13:43:23.254Z,101102.25
2019-02-11T13:45:59.476Z,101106.67
2019-02-11T13:48:34.620Z,101112.38
2019-02-11T13:51:08.622Z,101123.78
2019-02-11T13:54:02.141Z,101132.64
2019-02-11T13:56:34.614Z,101151.63
2019-02-11T13:59:08.080Z,101147.73
2019-02-11T14:01:41.684Z,101157.45
2019-02-11T14:04:20.239Z,101163.78
2019-02-11T14:10:37.535Z,101165.02
2019-02-11T14:13:19.953Z,101168.22
2019-02-11T14:20:42.385Z,101164.92
2019-02-11T14:23:21.370Z,101171.00
2019-02-11T14:26:02.039Z,101191.91
2019-02-11T14:28:39.873Z,101182.89
2019-02-11T14:31:43.305Z,101198.46
2019-02-11T14:34:36.373Z,101203.69
2019-02-11T14:37:12.773Z,101204.42
2019-02-11T14:39:51.629Z,101211.14
2019-02-11T14:42:25.087Z,101225.09
2019-02-11T14:44:59.563Z,101233.05
2019-02-11T14:47:55.178Z,101231.05
2019-02-11T14:50:33.298Z,101234.67
2019-02-11T14:53:27.253Z,101228.44
2019-02-11T14:56:10.513Z,101244.61
2019-02-11T14:58:52.821Z,101258.80
2019-02-11T15:04:54.155Z,101270.37
2019-02-11T15:07:43.359Z,101268.13
2019-02-11T15:10:25.861Z,101277.87
2019-02-11T15:13:04.372Z,101289.00
2019-02-11T15:16:04.700Z,101284.54
2019-02-11T15:18:43.750Z,101289.58
2019-02-11T15:21:43.489Z,101294.48
2019-02-11T15:24:23.359Z,101296.54
2019-02-11T15:30:38.970Z,101310.85
2019-02-11T15:33:25.237Z,101324.64
2019-02-11T15:39:41.834Z,101348.73
2019-02-11T15:42:29.367Z,101365.78
2019-02-11T15:45:47.096Z,101375.86
2019-02-11T15:49:43.582Z,101372.22
2019-02-11T15:52:32.604Z,101369.98
2019-02-11T15:59:52.110Z,101395.73
2019-02-11T16:02:45.119Z,101407.98
2019-02-11T16:09:22.728Z,101430.88
2019-02-11T16:12:28.888Z,101462.77
2019-02-11T16:15:55.621Z,101456.62
2019-02-11T16:22:48.395Z,101479.78
2019-02-11T16:26:44.705Z,101488.84
2019-02-11T16:29:43.747Z,101491.42
2019-02-11T16:36:20.512Z,101520.44
2019-02-11T16:39:00.659Z,101548.84
2019-02-11T16:45:23.190Z,101554.29
2019-02-11T16:48:49.833Z,101549.79
2019-02-11T16:51:43.437Z,101572.02
2019-02-11T16:55:25.657Z,101567.55
2019-02-11T16:58:43.330Z,101582.25
2019-02-11T17:04:10.203Z,101602.86
2019-02-11T17:06:51.427Z,101605.27
2019-02-11T17:09:31.936Z,101610.46
2019-02-11T17:12:11.433Z,101617.34
2019-02-11T17:14:48.823Z,101630.28
2019-02-11T17:17:38.986Z,101640.88
2019-02-11T17:23:47.117Z,101657.09
2019-02-11T17:26:21.436Z,101655.41
2019-02-11T17:29:38.316Z,101657.19
2019-02-11T17:33:19.742Z,101660.73
2019-02-11T17:36:09.273Z,101679.66
2019-02-11T17:39:09.261Z,101672.64
2019-02-11T17:42:09.497Z,101680.20
2019-02-11T17:44:53.564Z,101678.92
2019-02-11T17:47:32.354Z,101702.08
2019-02-11T17:50:08.521Z,101702.14
2019-02-11T17:52:53.836Z,101699.00
2019-02-11T17:55:31.183Z,101703.03
2019-02-11T17:58:05.263Z,101708.30
2019-02-11T18:00:51.130Z,101715.82
2019-02-11T18:03:26.624Z,101717.61
2019-02-11T18:06:11.843Z,101726.48
2019-02-11T18:08:46.995Z,101734.83
2019-02-11T18:11:21.314Z,101719.05
2019-02-11T18:13:59.653Z,101731.86
2019-02-11T18:16:42.445Z,101730.41
2019-02-11T18:19:16.079Z,101734.91
2019-02-11T18:21:55.202Z,101731.83
2019-02-11T18:28:03.633Z,101744.77
2019-02-11T18:30:38.556Z,101750.09
2019-02-11T18:33:32.214Z,101754.48
2019-02-11T18:36:08.414Z,101766.50
2019-02-11T18:38:50.908Z,101767.31
2019-02-11T18:41:27.868Z,101764.23
2019-02-11T18:44:04.114Z,101771.39
2019-02-11T18:46:40.595Z,101775.36
2019-02-11T18:49:16.932Z,101778.52
2019-02-11T18:51:52.773Z,101787.86
2019-02-11T18:54:41.842Z,101794.00
2019-02-11T18:57:50.267Z,101802.47
2019-02-11T19:00:56.078Z,101812.16
2019-02-11T19:04:22.501Z,101817.11
2019-02-11T19:07:20.254Z,101812.63
2019-02-11T19:10:24.818Z,101808.16
2019-02-11T19:13:19.250Z,101818.84
2019-02-11T19:20:02.961Z,101833.03
2019-02-11T19:35:06.885Z,101833.98
2019-02-11T19:38:10.742Z,101829.55
2019-02-11T19:41:39.986Z,101840.53
2019-02-11T19:44:51.403Z,101845.05
2019-02-11T19:47:41.626Z,101845.05
2019-02-11T19:51:02.024Z,101838.03
2019-02-11T19:53:43.937Z,101841.56
2019-02-11T19:56:19.824Z,101854.84
2019-02-11T19:59:18.992Z,101857.89
2019-02-11T20:02:06.769Z,101861.88
2019-02-11T20:04:54.274Z,101863.72
2019-02-11T20:17:44.849Z,101887.09
2019-02-11T20:20:27.768Z,101885.81
2019-02-11T20:23:10.324Z,101899.12
2019-02-11T20:25:44.402Z,101900.87
2019-02-11T20:28:34.398Z,101910.58
2019-02-11T20:31:10.404Z,101903.05
2019-02-11T20:33:44.575Z,101905.72
2019-02-11T20:36:24.233Z,101919.42
2019-02-11T20:38:59.928Z,101910.59
2019-02-11T20:41:34.056Z,101921.17
2019-02-11T20:44:11.103Z,101922.96
2019-02-11T20:46:49.633Z,101927.84
2019-02-11T20:49:32.641Z,101923.42
2019-02-11T20:55:42.505Z,101930.53
2019-02-11T21:04:25.597Z,101948.59
2019-02-11T21:07:08.984Z,101948.63
2019-02-11T21:09:50.659Z,101957.89
2019-02-11T21:12:58.101Z,101966.75
2019-02-11T21:16:08.412Z,101972.48
2019-02-11T21:19:01.695Z,101978.23
2019-02-11T21:21:56.955Z,101986.63
2019-02-11T21:24:32.283Z,101978.25
2019-02-11T21:27:05.685Z,101978.66
2019-02-11T21:29:42.305Z,101981.30
2019-02-11T21:32:18.553Z,101983.08
2019-02-11T21:34:53.847Z,101978.66
2019-02-11T21:37:46.448Z,101995.91
2019-02-11T21:40:21.543Z,102009.16
2019-02-11T21:42:57.686Z,102016.22
2019-02-11T21:45:40.718Z,102011.34
2019-02-11T21:48:16.844Z,102019.33
2019-02-11T21:50:50.899Z,102021.53
2019-02-11T21:56:29.034Z,102019.75
2019-02-11T21:59:25.837Z,102022.84
2019-02-11T22:02:45.859Z,102030.35
2019-02-11T22:05:31.041Z,102027.28
2019-02-11T22:08:11.205Z,102023.74
2019-02-11T22:10:50.220Z,102031.69
2019-02-11T22:13:35.737Z,102035.67
2019-02-11T22:22:14.925Z,102051.58
2019-02-11T22:24:56.340Z,102066.16
2019-02-11T22:27:32.218Z,102064.81
2019-02-11T22:30:09.042Z,102052.47
2019-02-11T22:32:49.967Z,102046.72
2019-02-11T22:35:34.366Z,102046.70
2019-02-11T22:38:14.118Z,102051.58
2019-02-11T22:40:52.616Z,102055.55
2019-02-11T22:43:28.604Z,102041.86
2019-02-11T22:46:02.788Z,102051.13
2019-02-11T22:48:36.926Z,102048.02
2019-02-11T22:51:22.000Z,102043.17
2019-02-11T22:53:57.384Z,102057.30
2019-02-11T22:57:19.614Z,102054.66
2019-02-11T22:59:54.869Z,102068.36
2019-02-11T23:02:29.533Z,102072.33
2019-02-11T23:05:11.902Z,102078.09
2019-02-11T23:07:47.849Z,102077.63
2019-02-11T23:10:33.075Z,102084.71
2019-02-11T23:13:27.315Z,102069.67
2019-02-11T23:16:03.173Z,102082.05
2019-02-11T23:18:39.767Z,102079.41
2019-02-11T23:21:12.766Z,102092.66
2019-02-11T23:23:57.098Z,102091.31
2019-02-11T23:26:38.661Z,102091.33
2019-02-11T23:29:20.945Z,102096.62
2019-02-11T23:32:11.026Z,102100.17
2019-02-11T23:34:45.159Z,102107.70
2019-02-11T23:37:21.173Z,102111.23
2019-02-11T23:39:54.677Z,102109.88
2019-02-11T23:42:30.578Z,102118.30
2019-02-11T23:45:21.843Z,102110.79
2019-02-11T23:48:45.200Z,102113.45
2019-02-11T23:51:18.030Z,102114.30
2019-02-11T23:54:00.779Z,102116.95
2019-02-11T23:56:34.464Z,102128.91
2019-02-11T23:59:31.166Z,102128.88
